sensor_id;sensor_type;location;lat;lon;timestamp;P1;durP1;ratioP1;P2;durP2;ratioP2
49460;SDS011;35355;49.198;-0.368;2023-03-16T00:01:08;10.75;;;1.80;;
49460;SDS011;35355;49.198;-0.368;2023-03-16T00:03:34;13.00;;;1.60;;
49460;SDS011;35355;49.198;-0.368;2023-03-16T00:06:00;9.02;;;1.88;;
49460;SDS011;35355;49.198;-0.368;2023-03-16T00:08:25;12.50;;;1.77;;
49460;SDS011;35355;49.198;-0.368;2023-03-16T00:10:51;14.68;;;1.95;;
49460;SDS011;35355;49.198;-0.368;2023-03-16T00:13:18;5.00;;;1.48;;
49460;SDS011;35355;49.198;-0.368;2023-03-16T00:18:24;7.30;;;1.27;;
49460;SDS011;35355;49.198;-0.368;2023-03-16T00:20:54;8.48;;;1.55;;
49460;SDS011;35355;49.198;-0.368;2023-03-16T00:23:26;7.38;;;1.20;;
49460;SDS011;35355;49.198;-0.368;2023-03-16T00:25:55;5.55;;;1.63;;
49460;SDS011;35355;49.198;-0.368;2023-03-16T00:28:24;8.73;;;1.65;;
49460;SDS011;35355;49.198;-0.368;2023-03-16T00:30:51;7.45;;;1.77;;
49460;SDS011;35355;49.198;-0.368;2023-03-16T00:33:17;19.40;;;2.05;;
49460;SDS011;35355;49.198;-0.368;2023-03-16T00:35:46;9.43;;;1.92;;
49460;SDS011;35355;49.198;-0.368;2023-03-16T00:38:26;10.97;;;1.33;;
49460;SDS011;35355;49.198;-0.368;2023-03-16T00:40:52;12.68;;;1.80;;
49460;SDS011;35355;49.198;-0.368;2023-03-16T00:43:17;5.72;;;2.03;;
49460;SDS011;35355;49.198;-0.368;2023-03-16T00:45:43;7.00;;;1.48;;
49460;SDS011;35355;49.198;-0.368;2023-03-16T00:48:09;9.43;;;1.77;;
49460;SDS011;35355;49.198;-0.368;2023-03-16T00:50:35;6.38;;;1.33;;
49460;SDS011;35355;49.198;-0.368;2023-03-16T00:53:01;7.00;;;1.70;;
49460;SDS011;35355;49.198;-0.368;2023-03-16T00:55:26;12.73;;;1.58;;
49460;SDS011;35355;49.198;-0.368;2023-03-16T00:57:52;8.48;;;1.38;;
49460;SDS011;35355;49.198;-0.368;2023-03-16T01:00:18;7.03;;;1.70;;
49460;SDS011;35355;49.198;-0.368;2023-03-16T01:02:45;5.90;;;1.45;;
49460;SDS011;35355;49.198;-0.368;2023-03-16T01:05:11;9.30;;;1.13;;
49460;SDS011;35355;49.198;-0.368;2023-03-16T01:07:38;6.25;;;1.60;;
49460;SDS011;35355;49.198;-0.368;2023-03-16T01:10:04;4.80;;;1.02;;
49460;SDS011;35355;49.198;-0.368;2023-03-16T01:12:30;13.38;;;1.48;;
49460;SDS011;35355;49.198;-0.368;2023-03-16T01:14:56;7.03;;;1.60;;
49460;SDS011;35355;49.198;-0.368;2023-03-16T01:17:21;8.88;;;1.40;;
49460;SDS011;35355;49.198;-0.368;2023-03-16T01:19:47;14.20;;;2.38;;
49460;SDS011;35355;49.198;-0.368;2023-03-16T01:22:13;5.55;;;1.55;;
49460;SDS011;35355;49.198;-0.368;2023-03-16T01:24:39;8.27;;;1.30;;
49460;SDS011;35355;49.198;-0.368;2023-03-16T01:27:06;5.32;;;1.40;;
49460;SDS011;35355;49.198;-0.368;2023-03-16T01:29:33;7.78;;;1.85;;
49460;SDS011;35355;49.198;-0.368;2023-03-16T01:31:58;8.20;;;1.55;;
49460;SDS011;35355;49.198;-0.368;2023-03-16T01:34:24;11.43;;;2.40;;
49460;SDS011;35355;49.198;-0.368;2023-03-16T01:36:50;6.18;;;1.92;;
49460;SDS011;35355;49.198;-0.368;2023-03-16T01:39:16;9.23;;;2.17;;
49460;SDS011;35355;49.198;-0.368;2023-03-16T01:41:42;6.50;;;1.95;;
49460;SDS011;35355;49.198;-0.368;2023-03-16T01:44:10;20.30;;;2.95;;
49460;SDS011;35355;49.198;-0.368;2023-03-16T01:46:38;14.45;;;2.88;;
49460;SDS011;35355;49.198;-0.368;2023-03-16T01:49:06;12.73;;;1.92;;
49460;SDS011;35355;49.198;-0.368;2023-03-16T01:54:01;7.03;;;2.03;;
49460;SDS011;35355;49.198;-0.368;2023-03-16T01:56:39;7.85;;;1.83;;
49460;SDS011;35355;49.198;-0.368;2023-03-16T01:59:11;9.95;;;1.95;;
49460;SDS011;35355;49.198;-0.368;2023-03-16T02:01:39;12.25;;;2.28;;
49460;SDS011;35355;49.198;-0.368;2023-03-16T02:06:55;8.65;;;1.70;;
49460;SDS011;35355;49.198;-0.368;2023-03-16T02:09:21;8.35;;;1.50;;
49460;SDS011;35355;49.198;-0.368;2023-03-16T02:11:48;12.98;;;1.83;;
49460;SDS011;35355;49.198;-0.368;2023-03-16T02:14:15;10.32;;;2.20;;
49460;SDS011;35355;49.198;-0.368;2023-03-16T02:16:40;4.90;;;1.77;;
49460;SDS011;35355;49.198;-0.368;2023-03-16T02:19:07;10.80;;;1.85;;
49460;SDS011;35355;49.198;-0.368;2023-03-16T02:21:43;9.43;;;2.10;;
49460;SDS011;35355;49.198;-0.368;2023-03-16T02:24:26;16.45;;;2.35;;
49460;SDS011;35355;49.198;-0.368;2023-03-16T02:26:52;9.07;;;3.03;;
49460;SDS011;35355;49.198;-0.368;2023-03-16T02:32:09;7.70;;;1.98;;
49460;SDS011;35355;49.198;-0.368;2023-03-16T02:34:35;10.27;;;2.58;;
49460;SDS011;35355;49.198;-0.368;2023-03-16T02:37:01;10.10;;;2.75;;
49460;SDS011;35355;49.198;-0.368;2023-03-16T02:39:27;7.97;;;2.13;;
49460;SDS011;35355;49.198;-0.368;2023-03-16T02:41:52;10.60;;;2.35;;
49460;SDS011;35355;49.198;-0.368;2023-03-16T02:44:22;7.72;;;2.25;;
49460;SDS011;35355;49.198;-0.368;2023-03-16T02:46:58;9.93;;;2.35;;
49460;SDS011;35355;49.198;-0.368;2023-03-16T02:49:35;15.27;;;2.15;;
49460;SDS011;35355;49.198;-0.368;2023-03-16T02:52:03;6.07;;;1.55;;
49460;SDS011;35355;49.198;-0.368;2023-03-16T02:54:31;6.28;;;1.70;;
49460;SDS011;35355;49.198;-0.368;2023-03-16T02:56:56;11.02;;;1.83;;
49460;SDS011;35355;49.198;-0.368;2023-03-16T02:59:22;7.85;;;1.88;;
49460;SDS011;35355;49.198;-0.368;2023-03-16T03:01:47;13.00;;;1.73;;
49460;SDS011;35355;49.198;-0.368;2023-03-16T03:04:12;11.52;;;2.40;;
49460;SDS011;35355;49.198;-0.368;2023-03-16T03:06:38;8.07;;;1.73;;
49460;SDS011;35355;49.198;-0.368;2023-03-16T03:09:05;11.27;;;2.30;;
49460;SDS011;35355;49.198;-0.368;2023-03-16T03:11:30;7.38;;;2.33;;
49460;SDS011;35355;49.198;-0.368;2023-03-16T03:13:56;15.38;;;2.20;;
49460;SDS011;35355;49.198;-0.368;2023-03-16T03:16:22;14.27;;;2.58;;
49460;SDS011;35355;49.198;-0.368;2023-03-16T03:18:48;7.50;;;2.72;;
49460;SDS011;35355;49.198;-0.368;2023-03-16T03:21:13;12.27;;;2.42;;
49460;SDS011;35355;49.198;-0.368;2023-03-16T03:23:39;12.98;;;3.10;;
49460;SDS011;35355;49.198;-0.368;2023-03-16T03:26:04;12.18;;;2.10;;
49460;SDS011;35355;49.198;-0.368;2023-03-16T03:28:30;12.05;;;2.97;;
49460;SDS011;35355;49.198;-0.368;2023-03-16T03:30:58;9.85;;;2.65;;
49460;SDS011;35355;49.198;-0.368;2023-03-16T03:33:23;8.70;;;2.15;;
49460;SDS011;35355;49.198;-0.368;2023-03-16T03:35:53;11.10;;;2.60;;
49460;SDS011;35355;49.198;-0.368;2023-03-16T03:38:22;8.65;;;2.40;;
49460;SDS011;35355;49.198;-0.368;2023-03-16T03:40:49;6.68;;;1.77;;
49460;SDS011;35355;49.198;-0.368;2023-03-16T03:43:18;11.65;;;3.00;;
49460;SDS011;35355;49.198;-0.368;2023-03-16T03:45:45;10.50;;;2.20;;
49460;SDS011;35355;49.198;-0.368;2023-03-16T03:48:10;8.88;;;1.90;;
49460;SDS011;35355;49.198;-0.368;2023-03-16T03:50:36;9.18;;;2.92;;
49460;SDS011;35355;49.198;-0.368;2023-03-16T03:53:03;5.65;;;1.45;;
49460;SDS011;35355;49.198;-0.368;2023-03-16T03:55:29;7.90;;;2.35;;
49460;SDS011;35355;49.198;-0.368;2023-03-16T03:57:54;8.30;;;1.95;;
49460;SDS011;35355;49.198;-0.368;2023-03-16T04:00:20;12.45;;;2.00;;
49460;SDS011;35355;49.198;-0.368;2023-03-16T04:02:46;5.53;;;1.40;;
49460;SDS011;35355;49.198;-0.368;2023-03-16T04:05:11;10.23;;;2.03;;
49460;SDS011;35355;49.198;-0.368;2023-03-16T04:07:37;9.38;;;1.33;;
49460;SDS011;35355;49.198;-0.368;2023-03-16T04:10:03;8.85;;;2.05;;
49460;SDS011;35355;49.198;-0.368;2023-03-16T04:12:29;5.55;;;2.17;;
49460;SDS011;35355;49.198;-0.368;2023-03-16T04:14:54;7.28;;;1.88;;
49460;SDS011;35355;49.198;-0.368;2023-03-16T04:17:20;6.18;;;1.33;;
49460;SDS011;35355;49.198;-0.368;2023-03-16T04:19:45;7.00;;;1.80;;
49460;SDS011;35355;49.198;-0.368;2023-03-16T04:22:11;9.85;;;1.98;;
49460;SDS011;35355;49.198;-0.368;2023-03-16T04:24:37;5.47;;;2.03;;
49460;SDS011;35355;49.198;-0.368;2023-03-16T04:27:02;8.18;;;1.90;;
49460;SDS011;35355;49.198;-0.368;2023-03-16T04:29:28;9.95;;;1.98;;
49460;SDS011;35355;49.198;-0.368;2023-03-16T04:31:53;5.68;;;1.83;;
49460;SDS011;35355;49.198;-0.368;2023-03-16T04:34:19;7.22;;;1.85;;
49460;SDS011;35355;49.198;-0.368;2023-03-16T04:36:49;10.80;;;2.28;;
49460;SDS011;35355;49.198;-0.368;2023-03-16T04:39:16;9.27;;;2.22;;
49460;SDS011;35355;49.198;-0.368;2023-03-16T04:41:42;14.55;;;2.10;;
49460;SDS011;35355;49.198;-0.368;2023-03-16T04:44:07;10.48;;;2.40;;
49460;SDS011;35355;49.198;-0.368;2023-03-16T04:46:32;12.60;;;2.67;;
49460;SDS011;35355;49.198;-0.368;2023-03-16T04:48:57;6.93;;;2.05;;
49460;SDS011;35355;49.198;-0.368;2023-03-16T04:51:23;7.38;;;1.92;;
49460;SDS011;35355;49.198;-0.368;2023-03-16T04:53:49;10.52;;;2.67;;
49460;SDS011;35355;49.198;-0.368;2023-03-16T04:56:15;8.18;;;2.20;;
49460;SDS011;35355;49.198;-0.368;2023-03-16T04:58:43;6.70;;;1.98;;
49460;SDS011;35355;49.198;-0.368;2023-03-16T05:01:09;13.45;;;2.17;;
49460;SDS011;35355;49.198;-0.368;2023-03-16T05:03:34;12.30;;;2.08;;
49460;SDS011;35355;49.198;-0.368;2023-03-16T05:05:59;9.10;;;2.00;;
49460;SDS011;35355;49.198;-0.368;2023-03-16T05:08:25;5.60;;;1.92;;
49460;SDS011;35355;49.198;-0.368;2023-03-16T05:10:54;8.85;;;2.05;;
49460;SDS011;35355;49.198;-0.368;2023-03-16T05:13:21;7.65;;;1.73;;
49460;SDS011;35355;49.198;-0.368;2023-03-16T05:15:46;9.35;;;2.10;;
49460;SDS011;35355;49.198;-0.368;2023-03-16T05:18:11;10.57;;;1.70;;
49460;SDS011;35355;49.198;-0.368;2023-03-16T05:20:37;9.90;;;2.42;;
49460;SDS011;35355;49.198;-0.368;2023-03-16T05:23:02;11.48;;;2.08;;
49460;SDS011;35355;49.198;-0.368;2023-03-16T05:25:27;6.03;;;2.00;;
49460;SDS011;35355;49.198;-0.368;2023-03-16T05:27:53;5.68;;;2.33;;
49460;SDS011;35355;49.198;-0.368;2023-03-16T05:30:18;5.32;;;1.65;;
49460;SDS011;35355;49.198;-0.368;2023-03-16T05:32:44;7.18;;;1.38;;
49460;SDS011;35355;49.198;-0.368;2023-03-16T05:35:10;10.95;;;2.00;;
49460;SDS011;35355;49.198;-0.368;2023-03-16T05:37:39;9.57;;;1.80;;
49460;SDS011;35355;49.198;-0.368;2023-03-16T05:40:06;9.00;;;2.17;;
49460;SDS011;35355;49.198;-0.368;2023-03-16T05:42:40;9.77;;;2.28;;
49460;SDS011;35355;49.198;-0.368;2023-03-16T05:45:09;11.63;;;2.60;;
49460;SDS011;35355;49.198;-0.368;2023-03-16T05:47:35;5.93;;;2.30;;
49460;SDS011;35355;49.198;-0.368;2023-03-16T05:50:02;6.15;;;1.30;;
49460;SDS011;35355;49.198;-0.368;2023-03-16T05:52:29;7.00;;;1.55;;
49460;SDS011;35355;49.198;-0.368;2023-03-16T05:54:54;12.90;;;2.60;;
49460;SDS011;35355;49.198;-0.368;2023-03-16T05:57:19;10.48;;;1.80;;
49460;SDS011;35355;49.198;-0.368;2023-03-16T05:59:45;10.43;;;1.52;;
49460;SDS011;35355;49.198;-0.368;2023-03-16T06:02:10;10.77;;;2.42;;
49460;SDS011;35355;49.198;-0.368;2023-03-16T06:04:35;9.80;;;2.00;;
49460;SDS011;35355;49.198;-0.368;2023-03-16T06:07:01;7.03;;;1.92;;
49460;SDS011;35355;49.198;-0.368;2023-03-16T06:09:26;5.55;;;1.27;;
49460;SDS011;35355;49.198;-0.368;2023-03-16T06:11:52;7.82;;;2.00;;
49460;SDS011;35355;49.198;-0.368;2023-03-16T06:14:17;8.05;;;1.50;;
49460;SDS011;35355;49.198;-0.368;2023-03-16T06:16:43;16.20;;;2.92;;
49460;SDS011;35355;49.198;-0.368;2023-03-16T06:19:08;6.90;;;1.63;;
49460;SDS011;35355;49.198;-0.368;2023-03-16T06:21:34;10.50;;;1.60;;
49460;SDS011;35355;49.198;-0.368;2023-03-16T06:23:59;9.93;;;1.67;;
49460;SDS011;35355;49.198;-0.368;2023-03-16T06:26:25;10.68;;;1.88;;
49460;SDS011;35355;49.198;-0.368;2023-03-16T06:28:51;8.52;;;1.70;;
49460;SDS011;35355;49.198;-0.368;2023-03-16T06:31:16;6.82;;;1.55;;
49460;SDS011;35355;49.198;-0.368;2023-03-16T06:33:42;5.38;;;1.85;;
49460;SDS011;35355;49.198;-0.368;2023-03-16T06:36:07;7.10;;;2.28;;
49460;SDS011;35355;49.198;-0.368;2023-03-16T06:38:32;10.00;;;1.73;;
49460;SDS011;35355;49.198;-0.368;2023-03-16T06:40:58;7.88;;;1.80;;
49460;SDS011;35355;49.198;-0.368;2023-03-16T06:43:23;7.07;;;2.30;;
49460;SDS011;35355;49.198;-0.368;2023-03-16T06:45:49;3.80;;;1.70;;
49460;SDS011;35355;49.198;-0.368;2023-03-16T06:48:14;13.70;;;2.38;;
49460;SDS011;35355;49.198;-0.368;2023-03-16T06:50:40;18.25;;;2.47;;
49460;SDS011;35355;49.198;-0.368;2023-03-16T06:53:05;7.50;;;2.28;;
49460;SDS011;35355;49.198;-0.368;2023-03-16T06:55:30;8.52;;;1.83;;
49460;SDS011;35355;49.198;-0.368;2023-03-16T06:57:56;8.02;;;1.83;;
49460;SDS011;35355;49.198;-0.368;2023-03-16T07:00:21;7.88;;;1.73;;
49460;SDS011;35355;49.198;-0.368;2023-03-16T07:02:47;10.88;;;2.78;;
49460;SDS011;35355;49.198;-0.368;2023-03-16T07:05:12;8.15;;;2.55;;
49460;SDS011;35355;49.198;-0.368;2023-03-16T07:07:41;11.38;;;1.88;;
49460;SDS011;35355;49.198;-0.368;2023-03-16T07:10:09;15.55;;;2.03;;
49460;SDS011;35355;49.198;-0.368;2023-03-16T07:12:39;7.90;;;1.88;;
49460;SDS011;35355;49.198;-0.368;2023-03-16T07:15:06;6.93;;;1.55;;
49460;SDS011;35355;49.198;-0.368;2023-03-16T07:17:32;7.38;;;1.88;;
49460;SDS011;35355;49.198;-0.368;2023-03-16T07:19:57;8.90;;;1.30;;
49460;SDS011;35355;49.198;-0.368;2023-03-16T07:22:22;5.43;;;1.42;;
49460;SDS011;35355;49.198;-0.368;2023-03-16T07:24:48;10.57;;;1.55;;
49460;SDS011;35355;49.198;-0.368;2023-03-16T07:27:21;10.80;;;1.92;;
49460;SDS011;35355;49.198;-0.368;2023-03-16T07:29:47;9.70;;;1.88;;
49460;SDS011;35355;49.198;-0.368;2023-03-16T07:32:13;11.43;;;1.70;;
49460;SDS011;35355;49.198;-0.368;2023-03-16T07:34:38;12.02;;;2.03;;
49460;SDS011;35355;49.198;-0.368;2023-03-16T07:37:04;8.95;;;2.38;;
49460;SDS011;35355;49.198;-0.368;2023-03-16T07:39:29;11.85;;;1.90;;
49460;SDS011;35355;49.198;-0.368;2023-03-16T07:41:55;5.65;;;1.48;;
49460;SDS011;35355;49.198;-0.368;2023-03-16T07:44:21;7.32;;;1.88;;
49460;SDS011;35355;49.198;-0.368;2023-03-16T07:46:46;13.27;;;2.33;;
49460;SDS011;35355;49.198;-0.368;2023-03-16T07:49:12;11.07;;;2.22;;
49460;SDS011;35355;49.198;-0.368;2023-03-16T07:51:37;9.02;;;2.08;;
49460;SDS011;35355;49.198;-0.368;2023-03-16T07:54:03;16.85;;;2.25;;
49460;SDS011;35355;49.198;-0.368;2023-03-16T07:56:29;10.40;;;2.35;;
49460;SDS011;35355;49.198;-0.368;2023-03-16T07:58:54;15.65;;;1.83;;
49460;SDS011;35355;49.198;-0.368;2023-03-16T08:01:19;8.15;;;1.80;;
49460;SDS011;35355;49.198;-0.368;2023-03-16T08:03:46;13.70;;;2.13;;
49460;SDS011;35355;49.198;-0.368;2023-03-16T08:06:11;11.75;;;1.67;;
49460;SDS011;35355;49.198;-0.368;2023-03-16T08:08:37;7.72;;;2.30;;
49460;SDS011;35355;49.198;-0.368;2023-03-16T08:11:02;10.15;;;2.17;;
49460;SDS011;35355;49.198;-0.368;2023-03-16T08:13:27;7.72;;;2.20;;
49460;SDS011;35355;49.198;-0.368;2023-03-16T08:15:54;8.68;;;2.15;;
49460;SDS011;35355;49.198;-0.368;2023-03-16T08:18:23;9.55;;;2.35;;
49460;SDS011;35355;49.198;-0.368;2023-03-16T08:20:49;7.72;;;2.20;;
49460;SDS011;35355;49.198;-0.368;2023-03-16T08:23:15;7.75;;;1.92;;
49460;SDS011;35355;49.198;-0.368;2023-03-16T08:25:41;10.68;;;2.00;;
49460;SDS011;35355;49.198;-0.368;2023-03-16T08:28:07;9.82;;;1.55;;
49460;SDS011;35355;49.198;-0.368;2023-03-16T08:30:33;8.70;;;2.15;;
49460;SDS011;35355;49.198;-0.368;2023-03-16T08:33:00;9.00;;;2.33;;
49460;SDS011;35355;49.198;-0.368;2023-03-16T08:35:27;27.63;;;3.28;;
49460;SDS011;35355;49.198;-0.368;2023-03-16T08:37:53;8.20;;;2.03;;
49460;SDS011;35355;49.198;-0.368;2023-03-16T08:40:20;10.30;;;1.98;;
49460;SDS011;35355;49.198;-0.368;2023-03-16T08:42:47;7.68;;;2.40;;
49460;SDS011;35355;49.198;-0.368;2023-03-16T08:45:14;15.48;;;2.80;;
49460;SDS011;35355;49.198;-0.368;2023-03-16T08:47:41;11.60;;;1.95;;
49460;SDS011;35355;49.198;-0.368;2023-03-16T08:50:08;4.30;;;1.40;;
49460;SDS011;35355;49.198;-0.368;2023-03-16T08:52:34;8.10;;;2.22;;
49460;SDS011;35355;49.198;-0.368;2023-03-16T08:55:01;6.03;;;1.60;;
49460;SDS011;35355;49.198;-0.368;2023-03-16T08:57:30;7.07;;;1.15;;
49460;SDS011;35355;49.198;-0.368;2023-03-16T08:59:56;10.00;;;1.70;;
49460;SDS011;35355;49.198;-0.368;2023-03-16T09:02:22;14.93;;;1.20;;
49460;SDS011;35355;49.198;-0.368;2023-03-16T09:04:48;4.95;;;2.13;;
49460;SDS011;35355;49.198;-0.368;2023-03-16T09:07:13;5.70;;;1.63;;
49460;SDS011;35355;49.198;-0.368;2023-03-16T09:09:39;6.07;;;1.25;;
49460;SDS011;35355;49.198;-0.368;2023-03-16T09:12:04;6.38;;;1.35;;
49460;SDS011;35355;49.198;-0.368;2023-03-16T09:14:30;9.77;;;1.67;;
49460;SDS011;35355;49.198;-0.368;2023-03-16T09:16:55;7.70;;;1.60;;
49460;SDS011;35355;49.198;-0.368;2023-03-16T09:19:21;7.30;;;1.45;;
49460;SDS011;35355;49.198;-0.368;2023-03-16T09:21:46;4.50;;;1.20;;
49460;SDS011;35355;49.198;-0.368;2023-03-16T09:24:12;9.25;;;1.13;;
49460;SDS011;35355;49.198;-0.368;2023-03-16T09:26:38;6.60;;;1.35;;
49460;SDS011;35355;49.198;-0.368;2023-03-16T09:29:04;12.70;;;1.70;;
49460;SDS011;35355;49.198;-0.368;2023-03-16T09:31:31;7.25;;;1.48;;
49460;SDS011;35355;49.198;-0.368;2023-03-16T09:33:57;4.13;;;1.98;;
49460;SDS011;35355;49.198;-0.368;2023-03-16T09:36:22;13.30;;;2.58;;
49460;SDS011;35355;49.198;-0.368;2023-03-16T09:38:48;7.03;;;1.40;;
49460;SDS011;35355;49.198;-0.368;2023-03-16T09:46:47;4.35;;;1.83;;
49460;SDS011;35355;49.198;-0.368;2023-03-16T09:49:16;13.57;;;2.58;;
49460;SDS011;35355;49.198;-0.368;2023-03-16T09:51:58;5.80;;;1.45;;
49460;SDS011;35355;49.198;-0.368;2023-03-16T09:54:37;7.32;;;2.17;;
49460;SDS011;35355;49.198;-0.368;2023-03-16T09:57:04;7.40;;;1.75;;
49460;SDS011;35355;49.198;-0.368;2023-03-16T09:59:39;10.35;;;1.88;;
49460;SDS011;35355;49.198;-0.368;2023-03-16T10:04:56;8.65;;;1.67;;
49460;SDS011;35355;49.198;-0.368;2023-03-16T10:16:15;6.93;;;1.75;;
49460;SDS011;35355;49.198;-0.368;2023-03-16T10:18:46;6.70;;;1.63;;
49460;SDS011;35355;49.198;-0.368;2023-03-16T10:21:15;5.88;;;1.63;;
49460;SDS011;35355;49.198;-0.368;2023-03-16T10:23:44;6.65;;;1.35;;
49460;SDS011;35355;49.198;-0.368;2023-03-16T10:26:15;5.45;;;1.80;;
49460;SDS011;35355;49.198;-0.368;2023-03-16T10:28:45;5.18;;;1.55;;
49460;SDS011;35355;49.198;-0.368;2023-03-16T10:31:11;8.85;;;1.38;;
49460;SDS011;35355;49.198;-0.368;2023-03-16T10:33:37;5.78;;;0.63;;
49460;SDS011;35355;49.198;-0.368;2023-03-16T10:36:14;3.65;;;0.57;;
49460;SDS011;35355;49.198;-0.368;2023-03-16T10:38:53;2.83;;;0.52;;
49460;SDS011;35355;49.198;-0.368;2023-03-16T10:41:29;3.77;;;0.50;;
49460;SDS011;35355;49.198;-0.368;2023-03-16T10:46:24;5.40;;;0.85;;
49460;SDS011;35355;49.198;-0.368;2023-03-16T10:48:58;8.45;;;1.02;;
49460;SDS011;35355;49.198;-0.368;2023-03-16T10:54:08;3.78;;;0.60;;
49460;SDS011;35355;49.198;-0.368;2023-03-16T10:56:40;4.80;;;0.55;;
49460;SDS011;35355;49.198;-0.368;2023-03-16T10:59:15;3.67;;;0.95;;
49460;SDS011;35355;49.198;-0.368;2023-03-16T11:01:56;5.57;;;1.13;;
49460;SDS011;35355;49.198;-0.368;2023-03-16T11:04:22;8.95;;;1.60;;
49460;SDS011;35355;49.198;-0.368;2023-03-16T11:06:52;6.65;;;0.88;;
49460;SDS011;35355;49.198;-0.368;2023-03-16T11:09:22;6.53;;;0.88;;
49460;SDS011;35355;49.198;-0.368;2023-03-16T11:11:59;3.58;;;0.70;;
49460;SDS011;35355;49.198;-0.368;2023-03-16T11:14:36;4.47;;;0.50;;
49460;SDS011;35355;49.198;-0.368;2023-03-16T11:17:02;2.60;;;0.45;;
49460;SDS011;35355;49.198;-0.368;2023-03-16T11:19:46;2.70;;;0.38;;
49460;SDS011;35355;49.198;-0.368;2023-03-16T11:22:18;2.40;;;0.50;;
49460;SDS011;35355;49.198;-0.368;2023-03-16T11:25:07;11.73;;;1.40;;
49460;SDS011;35355;49.198;-0.368;2023-03-16T11:30:45;4.90;;;0.82;;
49460;SDS011;35355;49.198;-0.368;2023-03-16T11:33:13;4.65;;;0.88;;
49460;SDS011;35355;49.198;-0.368;2023-03-16T11:35:46;7.38;;;0.60;;
49460;SDS011;35355;49.198;-0.368;2023-03-16T11:38:40;1.35;;;0.57;;
49460;SDS011;35355;49.198;-0.368;2023-03-16T11:44:32;6.40;;;0.60;;
49460;SDS011;35355;49.198;-0.368;2023-03-16T11:47:08;2.35;;;1.13;;
49460;SDS011;35355;49.198;-0.368;2023-03-16T11:55:16;1.60;;;0.50;;
49460;SDS011;35355;49.198;-0.368;2023-03-16T12:11:52;2.05;;;0.40;;
49460;SDS011;35355;49.198;-0.368;2023-03-16T12:22:46;3.35;;;0.60;;
49460;SDS011;35355;49.198;-0.368;2023-03-16T12:25:23;3.08;;;0.50;;
49460;SDS011;35355;49.198;-0.368;2023-03-16T12:27:54;9.23;;;0.73;;
49460;SDS011;35355;49.198;-0.368;2023-03-16T12:30:38;5.88;;;1.08;;
49460;SDS011;35355;49.198;-0.368;2023-03-16T12:44:37;2.72;;;0.57;;
49460;SDS011;35355;49.198;-0.368;2023-03-16T12:50:14;4.60;;;0.52;;
49460;SDS011;35355;49.198;-0.368;2023-03-16T12:52:44;1.52;;;0.20;;
49460;SDS011;35355;49.198;-0.368;2023-03-16T12:57:56;1.15;;;0.40;;
49460;SDS011;35355;49.198;-0.368;2023-03-16T13:00:34;2.42;;;0.38;;
49460;SDS011;35355;49.198;-0.368;2023-03-16T13:03:05;3.40;;;0.40;;
49460;SDS011;35355;49.198;-0.368;2023-03-16T13:05:36;2.97;;;0.50;;
49460;SDS011;35355;49.198;-0.368;2023-03-16T13:08:15;1.90;;;0.50;;
49460;SDS011;35355;49.198;-0.368;2023-03-16T13:10:42;1.00;;;0.30;;
49460;SDS011;35355;49.198;-0.368;2023-03-16T13:13:30;2.58;;;0.47;;
49460;SDS011;35355;49.198;-0.368;2023-03-16T13:16:07;0.93;;;0.30;;
49460;SDS011;35355;49.198;-0.368;2023-03-16T13:18:39;1.95;;;0.70;;
49460;SDS011;35355;49.198;-0.368;2023-03-16T13:23:45;4.13;;;0.40;;
49460;SDS011;35355;49.198;-0.368;2023-03-16T13:27:01;3.15;;;0.85;;
49460;SDS011;35355;49.198;-0.368;2023-03-16T13:29:32;6.65;;;0.70;;
49460;SDS011;35355;49.198;-0.368;2023-03-16T13:32:01;3.85;;;1.13;;
49460;SDS011;35355;49.198;-0.368;2023-03-16T13:34:32;3.28;;;0.40;;
49460;SDS011;35355;49.198;-0.368;2023-03-16T13:37:03;3.65;;;0.55;;
49460;SDS011;35355;49.198;-0.368;2023-03-16T13:39:29;2.60;;;0.70;;
49460;SDS011;35355;49.198;-0.368;2023-03-16T13:44:22;5.22;;;0.47;;
49460;SDS011;35355;49.198;-0.368;2023-03-16T13:46:48;4.70;;;0.63;;
49460;SDS011;35355;49.198;-0.368;2023-03-16T13:49:16;3.05;;;0.98;;
49460;SDS011;35355;49.198;-0.368;2023-03-16T13:51:43;3.72;;;0.82;;
49460;SDS011;35355;49.198;-0.368;2023-03-16T13:56:42;6.78;;;1.20;;
49460;SDS011;35355;49.198;-0.368;2023-03-16T13:59:08;3.25;;;0.82;;
49460;SDS011;35355;49.198;-0.368;2023-03-16T14:01:35;4.45;;;0.82;;
49460;SDS011;35355;49.198;-0.368;2023-03-16T14:04:02;4.50;;;1.10;;
49460;SDS011;35355;49.198;-0.368;2023-03-16T14:06:35;4.25;;;0.70;;
49460;SDS011;35355;49.198;-0.368;2023-03-16T14:09:03;4.32;;;0.88;;
49460;SDS011;35355;49.198;-0.368;2023-03-16T14:11:31;4.68;;;0.60;;
49460;SDS011;35355;49.198;-0.368;2023-03-16T14:13:57;1.05;;;0.40;;
49460;SDS011;35355;49.198;-0.368;2023-03-16T14:16:25;3.65;;;0.50;;
49460;SDS011;35355;49.198;-0.368;2023-03-16T14:21:32;5.38;;;0.52;;
49460;SDS011;35355;49.198;-0.368;2023-03-16T14:23:59;2.70;;;0.80;;
49460;SDS011;35355;49.198;-0.368;2023-03-16T14:26:47;3.60;;;0.65;;
49460;SDS011;35355;49.198;-0.368;2023-03-16T14:31:54;2.38;;;0.50;;
49460;SDS011;35355;49.198;-0.368;2023-03-16T14:37:09;2.10;;;0.40;;
49460;SDS011;35355;49.198;-0.368;2023-03-16T14:39:36;3.17;;;0.40;;
49460;SDS011;35355;49.198;-0.368;2023-03-16T14:42:04;4.53;;;0.60;;
49460;SDS011;35355;49.198;-0.368;2023-03-16T14:44:38;2.55;;;0.70;;
49460;SDS011;35355;49.198;-0.368;2023-03-16T14:47:04;7.22;;;0.50;;
49460;SDS011;35355;49.198;-0.368;2023-03-16T14:49:31;0.98;;;0.30;;
49460;SDS011;35355;49.198;-0.368;2023-03-16T14:52:01;2.33;;;0.30;;
49460;SDS011;35355;49.198;-0.368;2023-03-16T14:54:29;3.88;;;0.47;;
49460;SDS011;35355;49.198;-0.368;2023-03-16T14:56:59;3.42;;;0.55;;
49460;SDS011;35355;49.198;-0.368;2023-03-16T14:59:26;3.38;;;0.30;;
49460;SDS011;35355;49.198;-0.368;2023-03-16T15:01:51;1.95;;;0.40;;
49460;SDS011;35355;49.198;-0.368;2023-03-16T15:04:23;3.45;;;0.32;;
49460;SDS011;35355;49.198;-0.368;2023-03-16T15:06:52;0.75;;;0.20;;
49460;SDS011;35355;49.198;-0.368;2023-03-16T15:09:26;3.58;;;0.40;;
49460;SDS011;35355;49.198;-0.368;2023-03-16T15:11:58;2.72;;;0.63;;
49460;SDS011;35355;49.198;-0.368;2023-03-16T15:14:24;0.80;;;0.30;;
49460;SDS011;35355;49.198;-0.368;2023-03-16T15:17:08;5.03;;;0.30;;
49460;SDS011;35355;49.198;-0.368;2023-03-16T15:19:33;4.55;;;0.50;;
49460;SDS011;35355;49.198;-0.368;2023-03-16T15:21:59;3.10;;;0.70;;
49460;SDS011;35355;49.198;-0.368;2023-03-16T15:24:26;2.60;;;0.80;;
49460;SDS011;35355;49.198;-0.368;2023-03-16T15:26:53;4.80;;;0.60;;
49460;SDS011;35355;49.198;-0.368;2023-03-16T15:29:18;5.03;;;0.93;;
49460;SDS011;35355;49.198;-0.368;2023-03-16T15:31:44;1.40;;;0.40;;
49460;SDS011;35355;49.198;-0.368;2023-03-16T15:34:10;5.88;;;0.40;;
49460;SDS011;35355;49.198;-0.368;2023-03-16T15:36:35;5.70;;;0.65;;
49460;SDS011;35355;49.198;-0.368;2023-03-16T15:39:01;4.18;;;0.32;;
49460;SDS011;35355;49.198;-0.368;2023-03-16T15:41:26;4.70;;;0.57;;
49460;SDS011;35355;49.198;-0.368;2023-03-16T15:43:52;6.13;;;0.70;;
49460;SDS011;35355;49.198;-0.368;2023-03-16T15:46:24;4.18;;;0.73;;
49460;SDS011;35355;49.198;-0.368;2023-03-16T15:48:50;4.53;;;0.82;;
49460;SDS011;35355;49.198;-0.368;2023-03-16T15:51:18;4.00;;;0.50;;
49460;SDS011;35355;49.198;-0.368;2023-03-16T15:53:48;1.67;;;0.57;;
49460;SDS011;35355;49.198;-0.368;2023-03-16T15:56:17;2.65;;;0.57;;
49460;SDS011;35355;49.198;-0.368;2023-03-16T15:58:46;1.30;;;0.38;;
49460;SDS011;35355;49.198;-0.368;2023-03-16T16:01:19;2.92;;;0.52;;
49460;SDS011;35355;49.198;-0.368;2023-03-16T16:03:46;1.55;;;0.50;;
49460;SDS011;35355;49.198;-0.368;2023-03-16T16:06:12;2.30;;;0.50;;
49460;SDS011;35355;49.198;-0.368;2023-03-16T16:08:38;2.10;;;0.60;;
49460;SDS011;35355;49.198;-0.368;2023-03-16T16:11:05;3.85;;;0.70;;
49460;SDS011;35355;49.198;-0.368;2023-03-16T16:13:38;4.90;;;0.50;;
49460;SDS011;35355;49.198;-0.368;2023-03-16T16:16:04;2.70;;;0.75;;